Time;durP1;ratioP1;P1;durP2;ratioP2;P2;SDS_P1;SDS_P2;PMS_P1;PMS_P2;Temp;Humidity;BMP_temperature;BMP_pressure;BME280_temperature;BME280_humidity;BME280_pressure;Samples;Min_cycle;Max_cycle;Signal;HPM_P1;HPM_P2
2022/11/28 00:02:07;;;;;;;7.50;6.10;;;9.10;58.50;;;;;;5022117;28;20197;-54
2022/11/28 00:04:33;;;;;;;6.47;5.60;;;9.20;58.40;;;;;;5031144;28;20201;-50
2022/11/28 00:06:58;;;;;;;6.17;5.53;;;9.10;58.20;;;;;;5021432;28;20491;-51
2022/11/28 00:09:24;;;;;;;5.97;5.37;;;9.10;58.60;;;;;;5022223;28;20194;-51
2022/11/28 00:11:50;;;;;;;5.47;4.97;;;9.30;58.00;;;;;;5006376;28;20197;-52
2022/11/28 00:14:17;;;;;;;6.67;5.30;;;9.60;57.20;;;;;;5023736;28;20193;-51
2022/11/28 00:16:44;;;;;;;5.60;5.00;;;9.90;56.40;;;;;;5027744;28;20604;-54
2022/11/28 00:19:10;;;;;;;6.10;5.30;;;10.20;54.80;;;;;;5023134;28;20450;-50
2022/11/28 00:21:37;;;;;;;5.43;4.73;;;10.30;54.50;;;;;;5023347;28;20452;-55
2022/11/28 00:24:03;;;;;;;7.70;5.03;;;10.30;54.10;;;;;;5022416;28;20447;-55
2022/11/28 00:26:34;;;;;;;5.47;4.97;;;10.10;54.10;;;;;;5023779;28;20495;-50
2022/11/28 00:29:00;;;;;;;6.00;5.40;;;10.00;54.40;;;;;;5038529;28;20451;-53
2022/11/28 00:31:29;;;;;;;4.90;4.50;;;10.00;54.70;;;;;;5021278;28;20463;-52
2022/11/28 00:33:55;;;;;;;4.93;4.53;;;10.10;54.40;;;;;;5026443;28;20470;-54
2022/11/28 00:36:21;;;;;;;5.00;4.50;;;9.80;55.50;;;;;;5022485;28;20447;-51
2022/11/28 00:38:48;;;;;;;5.80;4.90;;;9.80;56.00;;;;;;5024125;28;20440;-53
2022/11/28 00:41:25;;;;;;;6.20;5.00;;;9.80;56.20;;;;;;5024555;28;20444;-51
2022/11/28 00:43:51;;;;;;;5.10;4.60;;;10.20;55.00;;;;;;5029017;28;20927;-51
2022/11/28 00:46:18;;;;;;;5.67;5.03;;;10.40;54.00;;;;;;5020138;28;20545;-52
2022/11/28 00:48:44;;;;;;;6.07;4.90;;;10.30;53.90;;;;;;5017136;28;20440;-54
2022/11/28 00:51:15;;;;;;;5.40;4.90;;;10.40;54.00;;;;;;5018159;28;21691;-52
2022/11/28 00:53:42;;;;;;;4.80;4.00;;;10.50;53.90;;;;;;5022997;28;20480;-50
2022/11/28 00:56:10;;;;;;;4.87;4.40;;;10.60;53.50;;;;;;5021852;28;20523;-54
2022/11/28 00:58:37;;;;;;;6.27;4.50;;;10.70;53.30;;;;;;5024575;28;20479;-52
2022/11/28 01:01:15;;;;;;;4.93;4.33;;;10.80;53.50;;;;;;5024525;28;20868;-51
2022/11/28 01:03:41;;;;;;;4.70;4.30;;;10.90;53.40;;;;;;5023898;28;20444;-52
2022/11/28 01:06:08;;;;;;;7.33;5.97;;;11.00;53.30;;;;;;5021001;28;20530;-52
2022/11/28 01:08:35;;;;;;;4.57;4.17;;;11.10;53.00;;;;;;5021519;28;20539;-52
2022/11/28 01:11:00;;;;;;;6.17;5.10;;;11.30;52.70;;;;;;5019641;28;21008;-53
2022/11/28 01:13:26;;;;;;;5.53;5.00;;;11.40;52.40;;;;;;5014952;28;20448;-53
2022/11/28 01:15:52;;;;;;;6.03;5.27;;;11.40;52.20;;;;;;5023148;28;20197;-52
2022/11/28 01:18:17;;;;;;;5.90;5.30;;;11.40;52.10;;;;;;5025405;28;20641;-51
2022/11/28 01:20:43;;;;;;;6.43;4.73;;;11.50;52.10;;;;;;5029082;28;20197;-51
2022/11/28 01:23:09;;;;;;;5.30;4.80;;;11.50;51.90;;;;;;5029100;28;20197;-52
2022/11/28 01:25:34;;;;;;;5.63;5.07;;;11.50;51.90;;;;;;5020900;28;20239;-52
2022/11/28 01:28:00;;;;;;;6.67;5.30;;;11.50;52.00;;;;;;5020079;28;20267;-53
2022/11/28 01:30:26;;;;;;;6.03;5.20;;;11.50;52.20;;;;;;5023473;28;20311;-55
2022/11/28 01:32:51;;;;;;;5.50;5.00;;;11.40;52.90;;;;;;5029999;28;20669;-51
2022/11/28 01:35:17;;;;;;;6.10;5.50;;;11.30;52.70;;;;;;5022907;28;20193;-53
2022/11/28 01:37:43;;;;;;;7.10;5.60;;;11.30;52.80;;;;;;5022581;28;20197;-52
2022/11/28 01:40:10;;;;;;;5.10;4.70;;;11.30;53.00;;;;;;5024440;28;20193;-53
2022/11/28 01:42:36;;;;;;;5.63;5.07;;;11.40;53.20;;;;;;5024013;28;20204;-53
2022/11/28 01:45:27;;;;;;;6.07;5.40;;;11.40;53.20;;;;;;5022406;28;20480;-52
2022/11/28 01:47:56;;;;;;;6.73;4.73;;;11.40;54.10;;;;;;5023015;28;20283;-53
2022/11/28 01:50:23;;;;;;;8.00;5.70;;;11.40;53.70;;;;;;5017316;28;21642;-52
2022/11/28 01:52:53;;;;;;;6.90;6.20;;;11.40;53.70;;;;;;5024501;28;20487;-53
2022/11/28 01:55:25;;;;;;;7.20;6.10;;;11.40;53.80;;;;;;5027271;28;20461;-53
2022/11/28 01:57:53;;;;;;;6.13;5.53;;;11.50;53.80;;;;;;5032350;28;20856;-51
2022/11/28 02:00:20;;;;;;;6.80;6.10;;;11.50;54.10;;;;;;5028483;28;20592;-53
2022/11/28 02:02:48;;;;;;;7.80;6.20;;;11.50;54.00;;;;;;5023448;28;21022;-54
2022/11/28 02:05:15;;;;;;;7.67;5.73;;;11.60;54.00;;;;;;5020444;28;20470;-51
2022/11/28 02:07:42;;;;;;;6.70;6.10;;;11.60;53.90;;;;;;5021163;28;20439;-50
2022/11/28 02:10:10;;;;;;;6.70;6.10;;;11.60;53.80;;;;;;5008592;28;20820;-53
2022/11/28 02:12:42;;;;;;;7.00;6.30;;;11.60;53.80;;;;;;5029376;28;20848;-53
2022/11/28 02:15:26;;;;;;;7.60;6.87;;;11.60;53.90;;;;;;5024785;28;20578;-54
2022/11/28 02:18:18;;;;;;;7.17;6.47;;;11.60;53.80;;;;;;5024336;28;20566;-52
2022/11/28 02:21:17;;;;;;;6.30;5.70;;;11.50;53.80;;;;;;5021089;28;20448;-53
2022/11/28 02:24:07;;;;;;;8.10;6.20;;;11.50;53.90;;;;;;5031797;28;20487;-54
2022/11/28 02:27:03;;;;;;;7.20;6.50;;;11.50;53.80;;;;;;5029982;28;20487;-52
2022/11/28 02:29:47;;;;;;;6.33;5.73;;;11.30;53.60;;;;;;5028080;28;20451;-54
2022/11/28 02:32:21;;;;;;;6.40;5.80;;;11.30;53.20;;;;;;5024435;28;20443;-54
2022/11/28 02:35:18;;;;;;;6.60;5.40;;;11.10;53.80;;;;;;5023753;28;20455;-54
2022/11/28 02:37:44;;;;;;;6.63;6.03;;;11.10;54.30;;;;;;5023116;28;20448;-53
2022/11/28 02:40:15;;;;;;;5.80;5.30;;;10.80;54.50;;;;;;5025865;28;20478;-53
2022/11/28 02:42:49;;;;;;;6.00;5.20;;;10.60;54.60;;;;;;5026158;28;20490;-54
2022/11/28 02:45:28;;;;;;;5.00;4.50;;;10.20;54.80;;;;;;5022476;28;20479;-52
2022/11/28 02:48:02;;;;;;;5.30;4.73;;;10.10;55.30;;;;;;5027049;28;20842;-50
2022/11/28 02:50:59;;;;;;;5.43;4.93;;;10.10;55.30;;;;;;5025087;28;20957;-53
2022/11/28 02:53:27;;;;;;;6.53;5.37;;;10.00;55.40;;;;;;5016393;28;20494;-53
2022/11/28 02:55:53;;;;;;;5.70;5.07;;;9.80;56.60;;;;;;5026109;28;20440;-53
2022/11/28 02:58:19;;;;;;;8.10;5.07;;;9.60;57.20;;;;;;5028241;28;20776;-54
2022/11/28 03:00:46;;;;;;;5.87;4.83;;;9.40;57.60;;;;;;5023514;28;20573;-51
2022/11/28 03:03:23;;;;;;;5.00;4.40;;;9.40;57.90;;;;;;5028394;28;20190;-53
2022/11/28 03:05:55;;;;;;;6.53;5.10;;;9.40;57.90;;;;;;5019147;28;20499;-53
2022/11/28 03:08:27;;;;;;;5.70;5.10;;;9.40;57.60;;;;;;5029436;28;20448;-51
2022/11/28 03:11:18;;;;;;;6.27;5.67;;;9.20;58.20;;;;;;5031627;28;20439;-54
2022/11/28 03:14:14;;;;;;;5.20;4.70;;;9.20;58.40;;;;;;5024803;28;21002;-53
2022/11/28 03:17:05;;;;;;;5.80;4.70;;;9.10;58.30;;;;;;5023401;28;20533;-53
2022/11/28 03:19:36;;;;;;;5.13;4.63;;;9.00;59.10;;;;;;5026607;28;20439;-53
2022/11/28 03:22:34;;;;;;;5.73;5.17;;;9.00;59.10;;;;;;5026278;28;20447;-53
2022/11/28 03:25:13;;;;;;;5.37;4.70;;;8.90;58.80;;;;;;5025495;28;20917;-53
2022/11/28 03:27:50;;;;;;;5.37;4.87;;;8.90;59.00;;;;;;5031724;28;20978;-52
2022/11/28 03:30:28;;;;;;;6.67;5.53;;;9.00;58.40;;;;;;5029826;28;20443;-53
2022/11/28 03:32:56;;;;;;;5.57;5.00;;;9.00;58.50;;;;;;5030598;28;20447;-53
2022/11/28 03:35:27;;;;;;;5.90;4.93;;;8.70;58.90;;;;;;5025115;28;20531;-51
2022/11/28 03:37:59;;;;;;;5.53;5.03;;;9.00;58.90;;;;;;5022194;28;20468;-52
2022/11/28 03:40:30;;;;;;;6.20;5.60;;;8.90;58.40;;;;;;5019955;28;20436;-54
2022/11/28 03:43:12;;;;;;;5.20;4.63;;;8.80;58.90;;;;;;5029947;28;20444;-53
2022/11/28 03:45:43;;;;;;;6.80;5.10;;;8.90;58.70;;;;;;5029190;28;20982;-53
2022/11/28 03:48:15;;;;;;;5.80;5.23;;;9.10;58.40;;;;;;5030099;28;20444;-54
2022/11/28 03:50:53;;;;;;;6.03;5.00;;;9.40;57.80;;;;;;5028653;28;20448;-54
2022/11/28 03:53:24;;;;;;;5.73;5.23;;;9.50;57.30;;;;;;5026232;28;20506;-53
2022/11/28 03:56:08;;;;;;;5.80;5.20;;;9.70;56.80;;;;;;5027015;28;20509;-52
2022/11/28 03:58:48;;;;;;;6.33;5.63;;;9.80;56.70;;;;;;5029737;28;20930;-54
2022/11/28 04:01:38;;;;;;;6.03;5.20;;;9.90;56.20;;;;;;5027909;28;20903;-54
2022/11/28 04:04:39;;;;;;;6.90;5.73;;;9.80;56.20;;;;;;5027156;28;20519;-54
2022/11/28 04:07:22;;;;;;;6.90;5.17;;;9.80;56.30;;;;;;5024400;28;21024;-53
2022/11/28 04:10:00;;;;;;;5.53;5.00;;;9.70;56.50;;;;;;5019266;28;20982;-52
2022/11/28 04:12:44;;;;;;;5.57;5.07;;;9.70;56.30;;;;;;5027260;28;20455;-53
2022/11/28 04:15:34;;;;;;;5.60;5.00;;;9.90;56.20;;;;;;5026750;28;20450;-53
2022/11/28 04:18:05;;;;;;;5.90;5.30;;;9.90;56.40;;;;;;5020346;28;20438;-53
2022/11/28 04:20:50;;;;;;;5.47;4.90;;;9.80;56.50;;;;;;5026278;28;20436;-53
2022/11/28 04:23:18;;;;;;;7.10;5.40;;;9.70;56.60;;;;;;5036301;28;20531;-51
2022/11/28 04:25:51;;;;;;;6.03;5.37;;;9.60;56.80;;;;;;5024821;28;20475;-53
2022/11/28 04:28:21;;;;;;;9.20;4.93;;;9.40;57.10;;;;;;5026723;28;20444;-53
2022/11/28 04:30:49;;;;;;;5.73;5.13;;;9.60;57.20;;;;;;5025792;28;20432;-54
2022/11/28 04:33:19;;;;;;;6.20;5.67;;;9.70;56.90;;;;;;5019879;28;21979;-53
2022/11/28 04:35:50;;;;;;;5.90;5.00;;;9.60;56.80;;;;;;5025960;28;20466;-54
2022/11/28 04:38:17;;;;;;;7.40;5.80;;;9.80;56.70;;;;;;5025240;28;20467;-52
2022/11/28 04:41:05;;;;;;;6.30;4.93;;;9.90;56.20;;;;;;5018022;28;20872;-53
2022/11/28 04:43:34;;;;;;;5.90;5.30;;;9.90;56.00;;;;;;5024561;28;20496;-53
2022/11/28 04:46:08;;;;;;;5.43;4.43;;;10.00;55.00;;;;;;5025473;28;20855;-51
2022/11/28 04:48:33;;;;;;;8.93;5.40;;;10.00;54.90;;;;;;5027854;28;20432;-51
2022/11/28 04:51:05;;;;;;;7.13;5.87;;;9.90;55.80;;;;;;5020541;28;20455;-54
2022/11/28 04:53:41;;;;;;;6.50;4.90;;;9.90;56.10;;;;;;5022171;28;20311;-51
2022/11/28 04:56:20;;;;;;;5.87;5.30;;;9.90;56.10;;;;;;5021340;28;20446;-50
2022/11/28 04:58:48;;;;;;;6.03;5.50;;;9.80;56.20;;;;;;5020717;28;20804;-52
2022/11/28 05:01:23;;;;;;;5.90;5.30;;;9.50;56.20;;;;;;5023697;28;20501;-52
2022/11/28 05:03:48;;;;;;;6.13;5.33;;;9.40;56.70;;;;;;5026705;28;20869;-53
2022/11/28 05:06:31;;;;;;;5.73;5.20;;;9.50;56.80;;;;;;5024816;28;20586;-53
2022/11/28 05:08:57;;;;;;;5.60;5.03;;;9.40;56.80;;;;;;5024983;28;20189;-54
2022/11/28 05:11:24;;;;;;;6.83;6.20;;;9.30;57.10;;;;;;5020576;28;20444;-53
2022/11/28 05:13:49;;;;;;;5.33;4.47;;;9.30;57.20;;;;;;5027692;28;20196;-51
2022/11/28 05:16:15;;;;;;;5.70;4.83;;;9.30;57.50;;;;;;5021072;28;20447;-53
2022/11/28 05:18:41;;;;;;;6.07;5.03;;;9.30;57.40;;;;;;5023659;28;20193;-53
2022/11/28 05:21:07;;;;;;;5.83;5.23;;;9.10;57.70;;;;;;5020585;28;21025;-53
2022/11/28 05:23:44;;;;;;;6.60;5.40;;;9.20;58.00;;;;;;5024045;28;20243;-54
2022/11/28 05:26:12;;;;;;;5.47;4.93;;;9.00;58.30;;;;;;5023142;28;20985;-53
2022/11/28 05:28:38;;;;;;;7.13;5.43;;;9.10;58.30;;;;;;5019572;28;20428;-53
2022/11/28 05:31:04;;;;;;;5.70;5.10;;;9.00;58.00;;;;;;5021788;28;20431;-54
2022/11/28 05:33:31;;;;;;;5.30;4.30;;;8.90;58.10;;;;;;5020623;28;20199;-54
2022/11/28 05:36:03;;;;;;;4.87;4.30;;;8.90;58.30;;;;;;5021676;28;20444;-53
2022/11/28 05:38:31;;;;;;;6.47;5.03;;;9.30;57.70;;;;;;5023147;28;20943;-53
2022/11/28 05:40:56;;;;;;;8.80;6.53;;;9.40;57.40;;;;;;5018889;28;20444;-51
2022/11/28 05:43:22;;;;;;;6.03;5.43;;;9.50;57.00;;;;;;5024484;28;20459;-54
2022/11/28 05:45:48;;;;;;;5.53;4.70;;;9.20;57.50;;;;;;5019318;28;20252;-55
2022/11/28 05:48:13;;;;;;;6.20;5.60;;;9.20;57.90;;;;;;5023304;28;20189;-53
2022/11/28 05:50:40;;;;;;;6.17;5.53;;;9.20;57.90;;;;;;5025659;28;20185;-51
2022/11/28 05:53:06;;;;;;;6.10;5.23;;;9.10;58.20;;;;;;5032020;28;20659;-53
2022/11/28 05:55:31;;;;;;;6.27;5.67;;;9.20;57.60;;;;;;5020087;28;20468;-53
2022/11/28 05:57:57;;;;;;;5.90;5.40;;;9.00;57.80;;;;;;5025030;28;23001;-53
2022/11/28 06:00:22;;;;;;;6.00;5.50;;;8.70;58.70;;;;;;5020517;28;20279;-51
2022/11/28 06:02:48;;;;;;;5.53;4.87;;;8.90;58.50;;;;;;5030201;28;20200;-53
2022/11/28 06:05:14;;;;;;;5.87;5.27;;;9.40;57.90;;;;;;5024955;28;20225;-53
2022/11/28 06:07:39;;;;;;;7.40;5.70;;;9.80;56.90;;;;;;5028805;28;20581;-54
2022/11/28 06:10:06;;;;;;;7.43;6.17;;;10.00;55.30;;;;;;5019536;28;20238;-51
2022/11/28 06:12:32;;;;;;;6.27;5.30;;;10.10;55.10;;;;;;5019847;28;20665;-52
2022/11/28 06:14:57;;;;;;;5.87;5.20;;;10.30;54.70;;;;;;5024217;28;20462;-52
2022/11/28 06:17:23;;;;;;;6.77;6.07;;;10.50;54.30;;;;;;5030417;28;20436;-53
2022/11/28 06:19:49;;;;;;;6.30;5.00;;;10.50;53.80;;;;;;5022617;28;20197;-51
2022/11/28 06:22:14;;;;;;;5.57;5.03;;;10.50;54.10;;;;;;5018974;28;20194;-54
2022/11/28 06:24:40;;;;;;;4.73;4.20;;;10.60;54.60;;;;;;5017722;28;20822;-53
2022/11/28 06:27:06;;;;;;;6.87;4.60;;;10.70;55.40;;;;;;5020311;28;20225;-54
2022/11/28 06:29:31;;;;;;;5.47;4.40;;;10.90;55.30;;;;;;5022688;28;20185;-53
2022/11/28 06:31:57;;;;;;;5.37;4.87;;;11.00;53.90;;;;;;5020499;28;20644;-53
2022/11/28 06:34:23;;;;;;;5.03;4.40;;;11.30;54.40;;;;;;5017709;28;20201;-53
2022/11/28 06:36:48;;;;;;;6.57;5.40;;;11.60;54.20;;;;;;5027526;28;20189;-52
2022/11/28 06:39:15;;;;;;;6.70;5.60;;;11.90;54.80;;;;;;5022516;28;20451;-50
2022/11/28 06:41:41;;;;;;;6.10;5.00;;;12.10;53.40;;;;;;5023676;28;20193;-52
2022/11/28 06:44:11;;;;;;;5.83;5.07;;;12.30;52.80;;;;;;5019847;28;20458;-53
2022/11/28 06:46:36;;;;;;;5.43;4.90;;;12.50;52.80;;;;;;5024997;28;20498;-53
2022/11/28 06:49:02;;;;;;;6.20;5.50;;;12.70;51.90;;;;;;5027425;28;20951;-52
2022/11/28 06:51:28;;;;;;;6.90;5.60;;;12.80;51.60;;;;;;5025228;28;20189;-53
2022/11/28 06:53:54;;;;;;;7.50;5.97;;;12.90;50.40;;;;;;5031677;28;20479;-54
2022/11/28 06:56:20;;;;;;;5.83;5.13;;;13.00;49.70;;;;;;5026928;28;20743;-54
2022/11/28 06:58:47;;;;;;;6.13;5.30;;;13.00;49.80;;;;;;5029694;28;20328;-54
2022/11/28 07:01:20;;;;;;;9.07;6.83;;;13.00;50.40;;;;;;5030828;28;20448;-54
2022/11/28 07:03:47;;;;;;;9.63;6.93;;;13.20;50.40;;;;;;5034345;28;20519;-55
2022/11/28 07:06:14;;;;;;;7.80;6.53;;;13.20;50.20;;;;;;5028461;28;20570;-54
2022/11/28 07:08:41;;;;;;;7.00;5.77;;;13.30;49.70;;;;;;5020736;28;21148;-54
2022/11/28 07:11:28;;;;;;;7.20;5.67;;;13.30;49.40;;;;;;5024721;28;20437;-55
2022/11/28 07:13:54;;;;;;;7.57;6.10;;;13.40;49.10;;;;;;5027142;28;20440;-54
2022/11/28 07:16:22;;;;;;;6.00;5.40;;;13.40;48.90;;;;;;5030810;28;20452;-52
2022/11/28 07:18:48;;;;;;;6.07;5.47;;;13.30;47.90;;;;;;5027109;28;20769;-52
2022/11/28 07:21:15;;;;;;;6.60;5.90;;;13.30;47.60;;;;;;5027765;28;20444;-55
2022/11/28 07:23:41;;;;;;;6.27;5.67;;;12.90;47.50;;;;;;5027631;28;20448;-54
2022/11/28 07:26:07;;;;;;;6.00;5.50;;;12.70;48.60;;;;;;5027404;28;20500;-54
2022/11/28 07:28:33;;;;;;;5.27;4.80;;;12.70;49.10;;;;;;5022979;28;20547;-53
2022/11/28 07:31:11;;;;;;;6.13;5.53;;;12.40;49.30;;;;;;5032436;28;20440;-54
2022/11/28 07:33:38;;;;;;;6.50;4.90;;;12.00;50.00;;;;;;5032324;28;20574;-53
2022/11/28 07:36:06;;;;;;;6.17;5.57;;;11.60;50.90;;;;;;5021645;28;20472;-56
2022/11/28 07:38:32;;;;;;;6.40;5.80;;;11.80;51.80;;;;;;5024323;28;20951;-52
2022/11/28 07:41:06;;;;;;;6.23;5.70;;;11.90;51.60;;;;;;5027415;28;20447;-55
2022/11/28 07:43:31;;;;;;;6.93;5.37;;;12.00;50.90;;;;;;5032740;28;20454;-55
2022/11/28 07:45:57;;;;;;;6.60;5.27;;;12.10;50.90;;;;;;5029915;28;20484;-55
2022/11/28 07:48:23;;;;;;;5.90;5.30;;;12.40;50.70;;;;;;5031977;28;20571;-55
2022/11/28 07:50:49;;;;;;;6.13;5.50;;;12.40;50.30;;;;;;5030847;28;20197;-54
2022/11/28 07:53:14;;;;;;;6.70;6.07;;;12.40;50.10;;;;;;5032974;28;20236;-54
2022/11/28 07:55:40;;;;;;;9.50;7.30;;;12.50;50.10;;;;;;5031380;28;20185;-55
2022/11/28 07:58:05;;;;;;;6.00;5.17;;;12.60;49.80;;;;;;5027660;28;20202;-55
2022/11/28 08:00:31;;;;;;;9.53;6.10;;;12.60;50.00;;;;;;5027968;28;20189;-55
2022/11/28 08:02:58;;;;;;;6.00;5.40;;;12.60;49.80;;;;;;5038870;28;20196;-55
2022/11/28 08:05:23;;;;;;;6.17;5.60;;;12.40;49.80;;;;;;5029864;28;20471;-54
2022/11/28 08:07:52;;;;;;;6.23;5.10;;;12.40;50.40;;;;;;5022326;28;20451;-55
2022/11/28 08:10:17;;;;;;;6.00;5.40;;;12.40;50.00;;;;;;5028515;28;20280;-54
2022/11/28 08:12:43;;;;;;;6.80;5.53;;;12.30;50.30;;;;;;5029409;28;20531;-55
2022/11/28 08:15:09;;;;;;;7.87;7.13;;;11.90;50.80;;;;;;5027293;28;20193;-54
2022/11/28 08:17:35;;;;;;;7.63;6.70;;;11.60;51.10;;;;;;5033833;28;20447;-54
2022/11/28 08:20:01;;;;;;;8.03;7.23;;;11.40;52.00;;;;;;5023643;28;20710;-54
2022/11/28 08:22:27;;;;;;;7.03;6.33;;;11.40;52.60;;;;;;5024157;28;20764;-55
2022/11/28 08:24:52;;;;;;;7.27;6.50;;;11.50;52.20;;;;;;5027006;28;20201;-51
2022/11/28 08:27:18;;;;;;;6.17;5.57;;;11.30;52.10;;;;;;5026210;28;20510;-54
2022/11/28 08:29:44;;;;;;;7.73;5.77;;;11.40;53.00;;;;;;5020210;28;20308;-55
2022/11/28 08:32:09;;;;;;;7.53;6.30;;;11.60;52.60;;;;;;5030112;28;20204;-54
2022/11/28 08:34:35;;;;;;;7.27;6.57;;;11.70;52.40;;;;;;5021097;28;20239;-55
2022/11/28 08:37:01;;;;;;;8.93;6.20;;;11.90;51.80;;;;;;5036295;28;20193;-55
2022/11/28 08:39:26;;;;;;;6.80;5.73;;;12.00;51.70;;;;;;5027814;28;20233;-55
2022/11/28 08:41:55;;;;;;;5.97;5.37;;;12.00;51.70;;;;;;5015799;28;20236;-56
2022/11/28 08:44:22;;;;;;;6.70;5.70;;;12.20;51.40;;;;;;5022723;28;20197;-55
2022/11/28 08:46:47;;;;;;;6.67;5.17;;;12.30;51.10;;;;;;5028027;28;20919;-55
2022/11/28 08:49:13;;;;;;;5.93;5.33;;;12.50;50.80;;;;;;5027977;28;20571;-54
2022/11/28 08:51:38;;;;;;;6.03;5.43;;;12.60;50.40;;;;;;5025775;28;20279;-56
2022/11/28 08:54:04;;;;;;;6.93;6.07;;;12.60;50.20;;;;;;5026629;28;20237;-55
2022/11/28 08:56:31;;;;;;;6.77;5.40;;;12.70;50.30;;;;;;5028775;28;20213;-56
2022/11/28 08:58:56;;;;;;;7.37;6.43;;;12.70;50.10;;;;;;5021235;28;20474;-55
2022/11/28 09:01:24;;;;;;;7.90;6.63;;;12.70;50.10;;;;;;5027225;28;20372;-55
2022/11/28 09:03:50;;;;;;;9.27;6.93;;;12.60;49.90;;;;;;5026225;28;20572;-54
2022/11/28 09:06:16;;;;;;;7.53;6.70;;;12.40;50.40;;;;;;5006069;28;20509;-55
2022/11/28 09:08:42;;;;;;;8.40;7.60;;;12.40;50.90;;;;;;5019242;28;20444;-53
2022/11/28 09:11:10;;;;;;;7.77;6.53;;;12.30;51.10;;;;;;5027037;28;20882;-56
2022/11/28 09:13:36;;;;;;;9.83;7.13;;;12.40;51.00;;;;;;5030497;28;20436;-55
2022/11/28 09:16:03;;;;;;;7.57;6.70;;;12.40;50.90;;;;;;5013638;28;20448;-55
2022/11/28 09:18:28;;;;;;;7.60;6.80;;;12.10;51.30;;;;;;5027880;28;20454;-55
2022/11/28 09:21:02;;;;;;;8.30;6.33;;;12.10;52.00;;;;;;5021914;28;20986;-55
2022/11/28 09:23:28;;;;;;;7.80;6.77;;;12.00;52.00;;;;;;5019740;28;20194;-55
2022/11/28 09:25:54;;;;;;;9.17;6.50;;;12.10;52.10;;;;;;5029019;28;20495;-54
2022/11/28 09:28:20;;;;;;;11.73;8.00;;;12.20;52.00;;;;;;5029718;28;20455;-55
2022/11/28 09:30:46;;;;;;;9.47;8.40;;;12.40;51.50;;;;;;5024710;28;20538;-55
2022/11/28 09:33:12;;;;;;;9.33;7.73;;;12.40;51.50;;;;;;5025101;28;20531;-55
2022/11/28 09:35:39;;;;;;;16.23;10.90;;;12.40;51.40;;;;;;5022380;28;20368;-56
2022/11/28 09:38:05;;;;;;;9.93;8.60;;;12.40;51.40;;;;;;5028462;28;20457;-55
2022/11/28 09:40:36;;;;;;;8.90;6.80;;;12.50;51.70;;;;;;5029189;28;20440;-54
2022/11/28 09:43:10;;;;;;;8.33;6.40;;;12.50;50.70;;;;;;5028398;28;20553;-56
2022/11/28 09:45:36;;;;;;;8.90;6.60;;;12.40;51.10;;;;;;5019411;28;20471;-55
2022/11/28 09:48:18;;;;;;;8.10;6.40;;;12.50;51.00;;;;;;5024479;28;21139;-55
2022/11/28 09:50:45;;;;;;;9.67;7.63;;;12.60;51.90;;;;;;5024092;28;20299;-57
2022/11/28 09:53:29;;;;;;;7.40;6.60;;;12.70;51.40;;;;;;5028760;28;20440;-56
2022/11/28 09:56:03;;;;;;;7.47;6.23;;;12.70;51.20;;;;;;5025055;28;20451;-55
2022/11/28 09:59:03;;;;;;;10.60;7.30;;;12.80;51.40;;;;;;5030353;28;21310;-53
2022/11/28 10:01:46;;;;;;;9.53;6.20;;;12.90;51.10;;;;;;5020036;28;20821;-55
2022/11/28 10:04:24;;;;;;;7.30;6.47;;;13.10;51.00;;;;;;5025436;28;20487;-54
2022/11/28 10:07:10;;;;;;;6.57;5.80;;;13.00;51.10;;;;;;5024885;28;20483;-54
2022/11/28 10:09:36;;;;;;;8.17;7.30;;;12.80;51.40;;;;;;5030147;28;20458;-55
2022/11/28 10:12:44;;;;;;;8.50;7.70;;;12.70;51.50;;;;;;5029572;28;20440;-53
2022/11/28 10:15:28;;;;;;;6.57;5.87;;;12.60;50.90;;;;;;4989676;28;20338;-55
2022/11/28 10:18:09;;;;;;;6.77;5.87;;;12.40;51.20;;;;;;5018999;28;20466;-55
2022/11/28 10:20:40;;;;;;;7.03;6.30;;;12.30;51.60;;;;;;5045708;28;20458;-55
2022/11/28 10:23:18;;;;;;;6.87;6.17;;;12.20;51.70;;;;;;5032084;28;20965;-51
2022/11/28 10:26:10;;;;;;;8.93;6.83;;;11.90;51.90;;;;;;5030648;28;20495;-55
2022/11/28 10:28:40;;;;;;;7.47;6.47;;;11.50;53.60;;;;;;5011484;28;20444;-55
2022/11/28 10:31:18;;;;;;;7.43;5.83;;;11.80;53.80;;;;;;5032158;28;20810;-53
2022/11/28 10:33:53;;;;;;;9.07;6.20;;;12.00;53.00;;;;;;5028243;28;20536;-55
2022/11/28 10:36:42;;;;;;;8.73;6.53;;;12.10;52.70;;;;;;5022467;28;20454;-54
2022/11/28 10:39:11;;;;;;;9.23;6.23;;;12.50;52.20;;;;;;4992962;28;20473;-53
2022/11/28 10:42:12;;;;;;;10.03;6.30;;;12.80;51.60;;;;;;5037362;28;20447;-54
2022/11/28 10:45:17;;;;;;;5.40;4.90;;;12.90;51.10;;;;;;5053072;28;20440;-54
2022/11/28 10:47:42;;;;;;;6.93;6.23;;;13.20;50.90;;;;;;5054109;28;20447;-54
2022/11/28 10:50:30;;;;;;;7.37;6.10;;;13.30;50.50;;;;;;5053811;28;20441;-54
2022/11/28 10:52:56;;;;;;;11.20;7.20;;;13.30;50.40;;;;;;5035971;28;20267;-54
2022/11/28 10:55:28;;;;;;;9.07;6.60;;;13.20;50.50;;;;;;5032476;28;20432;-55
2022/11/28 10:58:08;;;;;;;7.17;6.03;;;13.20;50.50;;;;;;5033636;28;20667;-53
2022/11/28 11:00:35;;;;;;;8.10;6.00;;;13.00;50.70;;;;;;5032183;28;20527;-55
2022/11/28 11:03:02;;;;;;;6.67;5.83;;;13.00;50.90;;;;;;5035949;28;20450;-55
2022/11/28 11:05:34;;;;;;;10.10;6.87;;;13.10;51.50;;;;;;5025526;28;20642;-55
2022/11/28 11:08:17;;;;;;;9.37;7.47;;;13.30;50.70;;;;;;5033794;28;20802;-54
2022/11/28 11:10:47;;;;;;;7.13;6.43;;;13.30;50.80;;;;;;5033348;28;20443;-51
2022/11/28 11:13:21;;;;;;;12.63;6.57;;;13.20;51.10;;;;;;5033872;28;20425;-53
2022/11/28 11:16:09;;;;;;;8.47;6.40;;;13.20;50.70;;;;;;5041134;28;20934;-55
2022/11/28 11:18:44;;;;;;;8.33;7.00;;;13.00;51.30;;;;;;5026386;28;21220;-54
2022/11/28 11:21:17;;;;;;;8.63;6.90;;;13.00;51.90;;;;;;5039079;28;20434;-52
2022/11/28 11:23:44;;;;;;;7.03;6.13;;;12.70;51.80;;;;;;5029547;28;20834;-55
2022/11/28 11:26:30;;;;;;;10.63;6.57;;;12.70;52.30;;;;;;5030824;28;20967;-55
2022/11/28 11:28:56;;;;;;;7.33;6.53;;;12.90;52.10;;;;;;5032292;28;21128;-55
2022/11/28 11:31:26;;;;;;;8.27;6.97;;;13.20;51.90;;;;;;5028414;28;20450;-53
2022/11/28 11:34:04;;;;;;;6.57;6.00;;;13.40;51.50;;;;;;5032777;28;20614;-55
2022/11/28 11:36:33;;;;;;;10.10;6.50;;;13.40;51.90;;;;;;5033078;28;20838;-55
2022/11/28 11:39:12;;;;;;;10.27;6.07;;;13.40;51.70;;;;;;5032184;28;20844;-56
2022/11/28 11:41:40;;;;;;;6.20;5.60;;;13.60;51.70;;;;;;5033351;28;20443;-56
2022/11/28 11:44:17;;;;;;;6.50;5.10;;;13.60;51.70;;;;;;5032520;28;20486;-55
2022/11/28 11:46:56;;;;;;;7.07;6.30;;;13.60;51.90;;;;;;5032895;28;20479;-57
2022/11/28 11:49:36;;;;;;;6.03;5.33;;;13.60;51.80;;;;;;5031972;28;20522;-55
2022/11/28 11:52:23;;;;;;;7.27;6.57;;;13.60;51.90;;;;;;5026377;28;20963;-54
2022/11/28 11:55:03;;;;;;;7.50;6.43;;;13.60;51.60;;;;;;5037032;28;21025;-55
2022/11/28 11:57:43;;;;;;;7.77;6.60;;;13.70;51.90;;;;;;5026869;28;20431;-55
2022/11/28 12:00:09;;;;;;;7.00;6.13;;;13.50;51.90;;;;;;5032489;28;20942;-55
2022/11/28 12:02:40;;;;;;;8.57;6.20;;;13.70;52.00;;;;;;5027686;28;20792;-56
2022/11/28 12:05:14;;;;;;;8.17;6.60;;;13.90;51.90;;;;;;5021421;28;20854;-54
2022/11/28 12:07:52;;;;;;;7.43;6.63;;;14.10;52.10;;;;;;5032054;28;20451;-56
2022/11/28 12:10:22;;;;;;;7.60;6.80;;;14.30;51.90;;;;;;5031731;28;20436;-56
2022/11/28 12:12:48;;;;;;;8.73;6.17;;;14.30;51.90;;;;;;5019633;28;20447;-56
2022/11/28 12:15:49;;;;;;;8.77;6.77;;;14.30;51.60;;;;;;5024276;28;20437;-56
2022/11/28 12:18:21;;;;;;;8.90;6.90;;;14.40;51.80;;;;;;5007199;28;20331;-55
2022/11/28 12:20:54;;;;;;;11.47;9.30;;;14.40;52.20;;;;;;5027640;28;20877;-55
2022/11/28 12:23:47;;;;;;;9.23;7.57;;;14.50;52.70;;;;;;5023675;28;20722;-56
2022/11/28 12:26:33;;;;;;;7.93;7.10;;;14.40;52.80;;;;;;5031037;28;20487;-55
2022/11/28 12:29:14;;;;;;;13.87;9.33;;;14.40;52.50;;;;;;5029471;28;20450;-56
2022/11/28 12:32:01;;;;;;;10.10;8.10;;;14.30;52.30;;;;;;5030478;28;20792;-55
2022/11/28 12:34:35;;;;;;;11.17;8.37;;;14.20;52.50;;;;;;5029789;28;20525;-56
2022/11/28 12:37:07;;;;;;;8.30;6.87;;;14.40;52.40;;;;;;5022110;28;20525;-55
2022/11/28 12:39:53;;;;;;;12.70;7.03;;;14.50;52.80;;;;;;5029176;28;20452;-55
2022/11/28 12:42:27;;;;;;;7.30;6.53;;;14.60;52.80;;;;;;5022910;28;20578;-53
2022/11/28 12:45:11;;;;;;;11.20;8.33;;;14.60;52.90;;;;;;5026684;28;20501;-55
2022/11/28 12:47:45;;;;;;;8.87;8.00;;;14.60;52.80;;;;;;5028055;28;20963;-56
2022/11/28 12:50:33;;;;;;;10.93;8.53;;;14.70;52.90;;;;;;5026136;28;21218;-54
2022/11/28 12:52:58;;;;;;;8.37;7.47;;;14.60;53.20;;;;;;5023877;28;20439;-54
2022/11/28 12:55:33;;;;;;;10.37;8.57;;;14.70;53.10;;;;;;5024521;28;20448;-54
2022/11/28 12:58:16;;;;;;;8.20;7.50;;;14.70;53.20;;;;;;5029194;28;20184;-55
2022/11/28 13:01:11;;;;;;;8.70;7.80;;;14.60;53.30;;;;;;5029617;28;20531;-55
2022/11/28 13:03:54;;;;;;;10.50;7.40;;;14.50;53.50;;;;;;5028243;28;20825;-55
2022/11/28 13:06:26;;;;;;;8.17;7.33;;;14.50;53.60;;;;;;5028096;28;20490;-55
2022/11/28 13:08:55;;;;;;;14.87;7.43;;;14.50;54.10;;;;;;5030250;28;20480;-56
2022/11/28 13:11:42;;;;;;;8.43;7.40;;;14.40;54.30;;;;;;5029250;28;20436;-55
2022/11/28 13:14:28;;;;;;;8.30;7.40;;;14.40;54.70;;;;;;5025451;28;20444;-55